• Join FlightAware (Why Join?)
  • Login
  • US Flag 
08:38PM EDT


 

Airport Tracker/Info


-or-


 

Live Flight TrackerFlight Track Log ✈ N8KB ✈ 30-May-2013 ✈ KMRY - KSDL

Flight Track Log - Related Links

Times and Time Zones

All times are in EDT time to prevent confusion due to time zone crossing. See the N8KB flight status page for this flight to view local times or setup timezone preferences in your user account.

Time Position Orientation Groundspeed Altitude Reporting Facility
EDT Latitude Longitude Course Direction KTS MPH feet Rate Location/Type
10:17AM 36.5775 -121.8094 83° East 153 176 25,000  Level Oakland Center
10:18AM 36.5819 -121.7669 83° East 144 166 3,200 -9,840 Descending Oakland Center
10:19AM 36.5894 -121.7122 80° East 135 155 5,000 1,860 Climbing Oakland Center
10:20AM 36.5767 -121.6700 111° Southeast 152 175 7,100 2,100 Climbing Oakland Center
10:21AM 36.5450 -121.6125 124° Southeast 166 191 9,300 1,860 Climbing Oakland Center
10:23AM 36.5186 -121.5639 124° Southeast 169 194 11,000 1,560 Climbing Oakland Center
10:24AM 36.4928 -121.5128 122° Southeast 175 201 12,600 1,860 Climbing Oakland Center
10:25AM 36.4625 -121.4550 123° Southeast 198 228 14,800 1,080 Climbing Oakland Center
10:26AM 36.4322 -121.3928 121° Southeast 209 241 14,900 1,140 Climbing Oakland Center
10:27AM 36.4050 -121.3375 121° Southeast 192 221 17,200 1,620 Climbing Oakland Center
10:28AM 36.3736 -121.2819 125° Southeast 196 226 18,300 840 Climbing Oakland Center
10:29AM 36.3417 -121.2203 123° Southeast 210 242 19,000 840 Climbing Oakland Center
10:31AM 36.2603 -121.0700 124° Southeast 259 298 20,900 1,020 Climbing Oakland Center
10:32AM 36.2339 -121.0056 117° Southeast 216 249 22,200 1,080 Climbing Oakland Center
10:33AM 36.1983 -120.9319 121° Southeast 208 239 23,100 840 Climbing Oakland Center
10:34AM 36.1625 -120.8717 126° Southeast 216 249 24,000 780 Climbing Oakland Center
10:35AM 36.1300 -120.8081 122° Southeast 219 252 24,800 480 Climbing Oakland Center
10:36AM 36.0942 -120.7408 123° Southeast 230 265 25,000 60 Climbing Oakland Center
10:37AM 36.0494 -120.6658 126° Southeast 268 308 25,000  Level Oakland Center
10:38AM 36.0047 -120.5817 123° Southeast 289 333 25,000  Level Oakland Center
10:39AM 35.9614 -120.4944 122° Southeast 296 341 25,000  Level Oakland Center
10:40AM 35.9147 -120.4067 123° Southeast 303 349 25,000  Level Oakland Center
10:41AM 35.8672 -120.3192 124° Southeast 305 351 25,000  Level Oakland Center
10:42AM 35.8211 -120.2311 123° Southeast 306 352 25,000  Level Oakland Center
10:43AM 35.7736 -120.1422 123° Southeast 307 353 25,000  Level Oakland Center
10:44AM 35.7275 -120.0553 123° Southeast 304 350 25,000  Level Oakland Center
10:45AM 35.6725 -119.9497 123° Southeast 304 350 25,000  Level Oakland Center
10:46AM 35.6256 -119.8639 124° Southeast 302 348 25,000  Level Oakland Center
10:47AM 35.5800 -119.7789 123° Southeast 300 345 25,000  Level Oakland Center
10:48AM 35.5339 -119.6942 124° Southeast 298 343 25,000  Level Oakland Center
10:49AM 35.4869 -119.6094 124° Southeast 298 343 25,000  Level Oakland Center
10:50AM 35.4411 -119.5242 123° Southeast 299 344 25,000  Level Oakland Center
10:50AM 35.4325 -119.5075 122° Southeast 298 343 25,000  Level Los Angeles Center
10:51AM 35.3858 -119.4228 124° Southeast 299 344 25,000  Level Los Angeles Center
10:52AM 35.3392 -119.3361 123° Southeast 302 348 25,000  Level Los Angeles Center
10:53AM 35.2939 -119.2508 123° Southeast 300 345 25,000  Level Los Angeles Center
10:54AM 35.2378 -119.1483 124° Southeast 302 348 25,000  Level Los Angeles Center
10:55AM 35.1900 -119.0647 125° Southeast 301 346 25,000  Level Los Angeles Center
10:56AM 35.1436 -118.9794 124° Southeast 301 346 25,000  Level Los Angeles Center
10:58AM 35.0956 -118.8958 125° Southeast 301 346 25,000  Level Los Angeles Center
10:59AM 35.0481 -118.8114 124° Southeast 301 346 25,000  Level Los Angeles Center
11:00AM 34.9933 -118.7081 123° Southeast 302 348 25,100  Climbing Los Angeles Center
11:01AM 34.9450 -118.6236 125° Southeast 304 350 25,100 -60 Level Los Angeles Center
11:02AM 34.9008 -118.5439 124° Southeast 305 351 25,000  Descending Los Angeles Center
11:03AM 34.8569 -118.4619 123° Southeast 296 341 25,100  Climbing Los Angeles Center
11:04AM 34.7886 -118.3464 126° Southeast 301 346 25,100  Level Los Angeles Center
11:05AM 34.7394 -118.2625 125° Southeast 305 351 25,100  Level Los Angeles Center
11:06AM 34.6925 -118.1781 124° Southeast 303 349 25,100  Level Los Angeles Center
11:07AM 34.6433 -118.0911 124° Southeast 312 359 25,100  Level Los Angeles Center
11:08AM 34.6042 -117.9994 117° Southeast 310 357 25,100 -60 Level Los Angeles Center
11:09AM 34.5739 -117.8828 107° East 306 352 25,000 -60 Descending Los Angeles Center
11:10AM 34.5461 -117.7842 109° East 309 356 25,000  Level Los Angeles Center
11:11AM 34.5178 -117.6858 109° East 311 358 25,000  Level Los Angeles Center
11:12AM 34.4878 -117.5917 111° Southeast 306 352 25,000  Level Los Angeles Center
11:13AM 34.4581 -117.4944 110° East 308 354 25,000  Level Los Angeles Center
11:14AM 34.4233 -117.3817 110° East 303 349 25,000  Level Los Angeles Center
11:15AM 34.3950 -117.2864 110° East 304 350 25,000  Level Los Angeles Center
11:16AM 34.3647 -117.1817 109° East 306 352 25,000  Level Los Angeles Center
11:17AM 34.3381 -117.0942 110° East 304 350 25,000  Level Los Angeles Center
11:18AM 34.3058 -117.0003 113° Southeast 304 350 25,000  Level Los Angeles Center
11:19AM 34.2769 -116.9042 110° East 306 352 25,000  Level Los Angeles Center
11:20AM 34.2433 -116.7883 109° East 307 353 25,000  Level Los Angeles Center
11:22AM 34.2133 -116.6922 111° Southeast 307 353 25,000  Level Los Angeles Center
11:23AM 34.1836 -116.5961 110° East 308 354 25,000  Level Los Angeles Center
11:24AM 34.1539 -116.5000 110° East 309 356 25,000  Level Los Angeles Center
11:25AM 34.1219 -116.3931 110° East 306 352 25,000  Level Los Angeles Center
11:26AM 34.0922 -116.3003 111° Southeast 300 345 25,000  Level Los Angeles Center
11:27AM 34.0619 -116.2056 111° Southeast 302 348 25,000  Level Los Angeles Center
11:28AM 34.0317 -116.1114 111° Southeast 300 345 25,000  Level Los Angeles Center
11:29AM 33.9969 -115.9972 110° East 302 348 25,000  Level Los Angeles Center
11:30AM 33.9669 -115.9025 111° Southeast 302 348 25,000  Level Los Angeles Center
11:31AM 33.9372 -115.8078 111° Southeast 302 348 25,000  Level Los Angeles Center
11:32AM 33.9056 -115.7139 112° Southeast 302 348 25,000  Level Los Angeles Center
11:33AM 33.8761 -115.6200 111° Southeast 300 345 25,000 -240 Level Los Angeles Center
11:34AM 33.8403 -115.5261 115° Southeast 307 353 24,600 -600 Descending Los Angeles Center
11:35AM 33.7928 -115.4100 116° Southeast 321 369 23,800 -720 Descending Los Angeles Center
11:36AM 33.7675 -115.3039 106° East 329 379 23,200 -420 Descending Los Angeles Center
11:37AM 33.7439 -115.2011 105° East 322 371 23,000 -120 Descending Los Angeles Center
11:38AM 33.7114 -115.1064 112° Southeast 308 354 23,000  Level Los Angeles Center
11:39AM 33.6767 -115.0136 114° Southeast 305 351 23,000  Level Los Angeles Center
11:40AM 33.6453 -114.9211 112° Southeast 302 348 23,000  Level Los Angeles Center
11:41AM 33.6108 -114.8089 110° East 300 345 23,000  Level Los Angeles Center
11:42AM 33.5858 -114.7139 108° East 300 345 23,000 -540 Level Los Angeles Center
11:43AM 33.5775 -114.6089 95° East 315 362 22,000 -1,020 Descending Los Angeles Center
11:44AM 33.5694 -114.4992 95° East 330 380 21,000 -1,080 Descending Los Angeles Center
11:45AM 33.5611 -114.3886 95° East 333 383 19,800 -1,260 Descending Los Angeles Center
11:46AM 33.5528 -114.2728 95° East 328 377 18,400 -1,380 Descending Los Angeles Center
11:47AM 33.5431 -114.1647 96° East 326 375 17,000 -780 Descending Los Angeles Center
11:48AM 33.5336 -114.0603 96° East 316 364 16,900 -60 Descending Albuquerque Center
11:49AM 33.5244 -113.9644 97° East 296 341 16,900  Level Albuquerque Center
11:50AM 33.5314 -113.8711 85° East 284 327 16,900  Level Albuquerque Center
11:51AM 33.5425 -113.7775 82° East 283 326 16,900  Level Albuquerque Center
11:52AM 33.5494 -113.6842 85° East 282 325 16,900 -300 Level Albuquerque Center
11:53AM 33.5586 -113.5897 83° East 284 327 16,300 -1,140 Descending Albuquerque Center
11:54AM 33.5700 -113.4664 84° East 304 350 14,600 -1,500 Descending Albuquerque Center
11:55AM 33.5739 -113.4125 85° East 312 359 13,800 -1,500 Descending Albuquerque Center
11:56AM 33.5794 -113.3611 83° East 315 362 13,100 -1,260 Descending Albuquerque Center
11:56AM 33.5831 -113.3033 86° East 313 360 12,400 -1,200 Descending Albuquerque Center
11:57AM 33.5881 -113.2592 82° East 311 358 11,900 -1,200 Descending Albuquerque Center
11:57AM 33.6019 -113.1639 80° East 299 344 11,000 -1,020 Descending Albuquerque Center
11:59AM 33.6144 -113.0706 81° East 283 326 9,900 -1,080 Descending Albuquerque Center
12:00PM 33.6411 -112.9842 70° East 278 320 8,700 -1,260 Descending Albuquerque Center
12:00PM 33.6614 -112.9150 71° East 278 320 7,800 -1,260 Descending Albuquerque Center
12:01PM 33.6683 -112.8861 74° East 274 315 7,400 -840 Descending Albuquerque Center
12:01PM 33.6844 -112.8275 72° East 269 310 7,000 -420 Descending Albuquerque Center
12:02PM 33.6917 -112.8044 69° East 260 299 7,000 -420 Level Albuquerque Center
12:02PM 33.7097 -112.7525 67° East 240 276 6,600 -720 Descending Albuquerque Center
12:03PM 33.7167 -112.7292 70° East 244 281 6,300 -600 Descending Albuquerque Center
12:03PM 33.7322 -112.6728 72° East 247 284 6,000 -300 Descending Albuquerque Center
12:04PM 33.7372 -112.6517 74° East 246 283 6,000  Level Albuquerque Center
12:04PM 33.7519 -112.6039 70° East 233 268 6,000  Level Albuquerque Center
12:05PM 33.7578 -112.5817 72° East 227 261 6,000  Level Albuquerque Center
12:05PM 33.7692 -112.5308 75° East 222 255 6,000  Level Albuquerque Center
12:06PM 33.7711 -112.4947 86° East 221 254 6,000  Level Albuquerque Center
12:07PM 33.7686 -112.4219 92° East 218 251 6,000  Level Albuquerque Center
12:08PM 33.7675 -112.3464 91° East 218 251 6,000  Level Albuquerque Center
12:09PM 33.7667 -112.2767 91° East 217 250 6,000  Level Albuquerque Center
12:10PM 33.7517 -112.2056 104° East 214 246 6,000  Level Albuquerque Center
12:11PM 33.7281 -112.1442 115° Southeast 214 246 6,000 -540 Level Albuquerque Center
12:12PM 33.6986 -112.0686 115° Southeast 208 239 5,000 -900 Descending Albuquerque Center
12:13PM 33.6808 -112.0069 109° East 199 229 4,200 -780 Descending Albuquerque Center
12:14PM 33.6686 -111.9489 104° East 183 211 3,500 -720 Descending Albuquerque Center
12:15PM 33.6644 -111.9042 96° East 148 170 2,800 -720 Descending Albuquerque Center
12:16PM 33.6469 -111.8844 137° Southeast 120 138 2,100 -660 Descending Albuquerque Center
12:17PM 33.6231 -111.9125 224° Southwest 107 123 1,500 -600 Descending Albuquerque Center